Time;durP1;ratioP1;P1;durP2;ratioP2;P2;SDS_P1;SDS_P2;PMS_P1;PMS_P2;Temp;Humidity;BMP_temperature;BMP_pressure;BME280_temperature;BME280_humidity;BME280_pressure;Samples;Min_cycle;Max_cycle;Signal;HPM_P1;HPM_P2
2024/02/18 00:01:51;;;;;;;5.60;5.00;;;;;;;5.54;100.00;100496.11;109086;1256;67054;-76
2024/02/18 00:04:17;;;;;;;4.20;3.50;;;;;;;5.49;100.00;100499.73;109117;1256;60240;-75
2024/02/18 00:06:44;;;;;;;7.00;4.60;;;;;;;5.46;100.00;100502.45;109104;1256;64167;-74
2024/02/18 00:09:10;;;;;;;5.40;3.70;;;;;;;5.44;100.00;100504.96;109121;1256;59297;-75
2024/02/18 00:11:37;;;;;;;5.80;4.20;;;;;;;5.41;100.00;100507.48;109120;1256;59640;-75
2024/02/18 00:14:04;;;;;;;6.30;4.50;;;;;;;5.38;100.00;100510.04;108923;1256;67307;-74
2024/02/18 00:16:31;;;;;;;3.90;3.50;;;;;;;5.37;100.00;100509.89;109114;1256;60003;-75
2024/02/18 00:18:59;;;;;;;4.80;3.80;;;;;;;5.37;100.00;100513.23;109129;1256;64023;-75
2024/02/18 00:21:28;;;;;;;5.20;4.00;;;;;;;5.37;100.00;100521.88;109100;1256;59161;-75
2024/02/18 00:23:56;;;;;;;4.70;3.80;;;;;;;5.36;100.00;100521.35;109086;1256;59021;-75
2024/02/18 00:26:23;;;;;;;4.50;3.60;;;;;;;5.35;100.00;100527.38;109120;1256;67040;-75
2024/02/18 00:28:50;;;;;;;4.40;3.70;;;;;;;5.34;100.00;100528.98;109097;1256;60205;-75
2024/02/18 00:31:16;;;;;;;6.30;3.30;;;;;;;5.34;100.00;100533.04;109121;1256;65128;-75
2024/02/18 00:33:43;;;;;;;5.10;3.20;;;;;;;5.35;100.00;100533.70;109084;1256;58980;-75
2024/02/18 00:36:10;;;;;;;5.30;3.30;;;;;;;5.37;100.00;100536.15;109114;1256;59038;-77
2024/02/18 00:38:36;;;;;;;6.70;3.80;;;;;;;5.37;100.00;100532.44;109126;1256;66026;-75
2024/02/18 00:41:05;;;;;;;3.40;2.80;;;;;;;5.38;100.00;100532.25;109123;1256;61006;-74
2024/02/18 00:43:31;;;;;;;6.20;3.60;;;;;;;5.39;100.00;100530.83;109096;1256;64070;-75
2024/02/18 00:45:58;;;;;;;5.70;3.80;;;;;;;5.39;100.00;100530.28;109096;1256;59060;-75
2024/02/18 00:48:24;;;;;;;5.20;3.70;;;;;;;5.39;100.00;100530.82;109134;1256;59329;-75
2024/02/18 00:50:51;;;;;;;4.00;3.60;;;;;;;5.38;100.00;100530.14;109122;1256;67030;-75
2024/02/18 00:53:19;;;;;;;4.30;3.40;;;;;;;5.37;100.00;100528.39;109094;1256;61113;-74
2024/02/18 00:55:45;;;;;;;5.70;3.70;;;;;;;5.37;100.00;100531.39;108947;1256;65173;-76
2024/02/18 00:58:12;;;;;;;5.60;3.80;;;;;;;5.35;100.00;100534.95;109092;1256;58998;-74
2024/02/18 01:00:40;;;;;;;5.00;3.50;;;;;;;5.35;100.00;100539.89;109128;1256;59081;-75
2024/02/18 01:03:07;;;;;;;8.00;3.90;;;;;;;5.35;100.00;100541.48;108956;1258;67035;-76
2024/02/18 01:05:35;;;;;;;5.00;3.70;;;;;;;5.35;100.00;100545.01;109096;1257;61078;-75
2024/02/18 01:08:02;;;;;;;4.80;3.80;;;;;;;5.35;100.00;100546.23;109077;1256;63985;-75
2024/02/18 01:10:28;;;;;;;6.10;4.10;;;;;;;5.35;100.00;100550.29;109144;1256;59107;-75
2024/02/18 01:12:55;;;;;;;4.70;3.70;;;;;;;5.35;100.00;100553.81;108951;1256;59024;-76
2024/02/18 01:15:22;;;;;;;6.00;3.60;;;;;;;5.35;100.00;100550.63;109135;1256;67291;-75
2024/02/18 01:17:48;;;;;;;6.10;3.80;;;;;;;5.35;100.00;100553.29;109121;1256;60011;-76
2024/02/18 01:20:15;;;;;;;5.70;3.40;;;;;;;5.35;100.00;100553.64;109127;1256;65161;-75
2024/02/18 01:22:42;;;;;;;5.40;3.80;;;;;;;5.35;100.00;100553.64;109103;1256;59249;-76
2024/02/18 01:25:08;;;;;;;6.20;3.80;;;;;;;5.35;100.00;100553.63;109090;1256;58877;-75
2024/02/18 01:27:35;;;;;;;7.50;3.40;;;;;;;5.37;100.00;100555.88;108993;1256;66998;-76
2024/02/18 01:30:02;;;;;;;5.70;3.50;;;;;;;5.37;100.00;100555.00;109126;1256;61169;-75
2024/02/18 01:32:28;;;;;;;5.60;3.30;;;;;;;5.37;100.00;100555.36;109102;1256;65380;-75
2024/02/18 01:34:55;;;;;;;6.70;3.90;;;;;;;5.37;100.00;100554.82;109094;1256;58956;-75
2024/02/18 01:37:22;;;;;;;6.20;4.10;;;;;;;5.37;100.00;100559.94;108959;1256;58970;-75
2024/02/18 01:39:49;;;;;;;6.60;3.50;;;;;;;5.37;100.00;100559.77;109115;1256;66998;-76
2024/02/18 01:42:15;;;;;;;6.50;4.00;;;;;;;5.37;100.00;100562.05;109130;1260;60126;-75
2024/02/18 01:44:42;;;;;;;6.90;3.70;;;;;;;5.36;100.00;100565.58;109141;1256;64965;-75
2024/02/18 01:47:09;;;;;;;4.30;3.50;;;;;;;5.36;100.00;100569.13;109118;1256;59333;-75
2024/02/18 01:49:36;;;;;;;7.50;4.40;;;;;;;5.36;100.00;100574.94;109117;1256;59127;-75
2024/02/18 01:52:03;;;;;;;6.80;3.90;;;;;;;5.35;100.00;100571.08;109104;1257;65920;-75
2024/02/18 01:54:35;;;;;;;6.20;3.80;;;;;;;5.35;100.00;100575.32;109109;1260;60792;-76
2024/02/18 01:57:06;;;;;;;5.80;3.70;;;;;;;5.34;100.00;100574.80;108949;1260;64005;-75
2024/02/18 01:59:34;;;;;;;5.60;3.30;;;;;;;5.34;100.00;100576.93;109114;1256;59054;-75
2024/02/18 02:02:02;;;;;;;7.80;3.60;;;;;;;5.33;100.00;100580.64;109163;1256;59122;-75
2024/02/18 02:04:29;;;;;;;6.20;3.60;;;;;;;5.33;100.00;100581.69;109112;1256;67070;-74
2024/02/18 02:06:59;;;;;;;5.70;4.00;;;;;;;5.33;100.00;100579.94;108968;1256;61136;-75
2024/02/18 02:09:32;;;;;;;5.40;3.80;;;;;;;5.33;100.00;100578.52;109127;1256;64052;-75
2024/02/18 02:12:00;;;;;;;8.30;4.20;;;;;;;5.32;100.00;100579.77;108845;1256;59314;-75
2024/02/18 02:14:27;;;;;;;4.70;3.20;;;;;;;5.31;100.00;100577.50;109131;1256;58957;-75
2024/02/18 02:16:53;;;;;;;5.10;3.50;;;;;;;5.29;100.00;100576.30;109098;1258;67040;-74
2024/02/18 02:19:22;;;;;;;4.40;3.20;;;;;;;5.27;100.00;100576.16;109150;1256;60733;-76
2024/02/18 02:21:49;;;;;;;5.60;3.50;;;;;;;5.27;100.00;100576.36;109133;1256;64011;-74
2024/02/18 02:24:16;;;;;;;6.40;3.40;;;;;;;5.26;100.00;100580.77;109091;1256;59338;-75
2024/02/18 02:26:48;;;;;;;5.50;3.40;;;;;;;5.25;100.00;100583.61;109138;1256;58986;-75
2024/02/18 02:29:15;;;;;;;7.00;3.70;;;;;;;5.24;100.00;100583.63;109132;1256;66138;-76
2024/02/18 02:31:44;;;;;;;5.80;3.20;;;;;;;5.23;100.00;100587.17;108896;1256;59466;-75
2024/02/18 02:34:14;;;;;;;6.00;2.80;;;;;;;5.21;100.00;100585.10;109120;1256;64209;-76
2024/02/18 02:36:41;;;;;;;4.70;3.00;;;;;;;5.20;100.00;100583.02;109127;1256;59200;-75
2024/02/18 02:39:08;;;;;;;4.80;3.40;;;;;;;5.18;100.00;100583.91;109110;1256;59869;-75
2024/02/18 02:41:34;;;;;;;7.20;3.70;;;;;;;5.17;100.00;100584.28;108973;1256;67092;-75
2024/02/18 02:44:02;;;;;;;6.20;3.50;;;;;;;5.16;100.00;100583.09;109166;1256;60493;-74
2024/02/18 02:46:29;;;;;;;5.60;3.30;;;;;;;5.15;100.00;100581.34;109112;1256;63990;-76
2024/02/18 02:48:56;;;;;;;5.90;3.80;;;;;;;5.14;100.00;100585.23;109124;1256;59866;-75
2024/02/18 02:51:22;;;;;;;6.00;3.20;;;;;;;5.14;100.00;100589.46;109094;1258;58972;-75
2024/02/18 02:53:49;;;;;;;8.10;3.30;;;;;;;5.13;100.00;100593.17;109137;1257;66126;-76
2024/02/18 02:56:16;;;;;;;3.70;2.80;;;;;;;5.13;100.00;100592.13;109134;1256;61080;-75
2024/02/18 02:58:42;;;;;;;5.00;3.10;;;;;;;5.12;100.00;100588.98;109092;1256;65059;-75
2024/02/18 03:01:09;;;;;;;5.60;3.60;;;;;;;5.11;100.00;100589.52;108917;1256;59389;-76
2024/02/18 03:03:38;;;;;;;7.00;3.50;;;;;;;5.10;100.00;100594.48;109103;1257;58966;-75
2024/02/18 03:06:04;;;;;;;6.20;3.60;;;;;;;5.09;100.00;100596.08;109094;1260;67238;-73
2024/02/18 03:08:31;;;;;;;4.50;3.10;;;;;;;5.07;100.00;100597.16;109129;1256;60142;-76
2024/02/18 03:10:58;;;;;;;5.20;3.10;;;;;;;5.06;100.00;100604.25;109087;1256;64024;-76
2024/02/18 03:13:25;;;;;;;5.60;3.40;;;;;;;5.05;100.00;100611.48;109104;1256;59346;-74
2024/02/18 03:15:51;;;;;;;5.10;3.70;;;;;;;5.05;100.00;100612.18;108975;1257;59574;-76
2024/02/18 03:18:18;;;;;;;6.20;3.90;;;;;;;5.03;100.00;100611.70;109147;1256;67416;-76
2024/02/18 03:20:45;;;;;;;6.50;3.70;;;;;;;5.02;100.00;100612.06;109086;1260;61013;-75
2024/02/18 03:23:12;;;;;;;3.80;3.10;;;;;;;5.00;100.00;100607.17;109099;1256;62854;-76
2024/02/18 03:25:38;;;;;;;8.00;4.30;;;;;;;4.97;100.00;100608.97;109086;1256;58976;-75
2024/02/18 03:28:05;;;;;;;7.30;4.10;;;;;;;4.96;100.00;100610.41;109119;1256;59223;-75
2024/02/18 03:30:31;;;;;;;6.50;4.60;;;;;;;4.95;100.00;100610.42;109114;1257;66001;-75
2024/02/18 03:32:58;;;;;;;8.40;4.80;;;;;;;4.94;100.00;100609.92;109131;1256;61025;-75
2024/02/18 03:35:27;;;;;;;7.40;4.20;;;;;;;4.93;100.00;100614.34;109086;1257;63853;-75
2024/02/18 03:37:56;;;;;;;6.50;5.40;;;;;;;4.91;100.00;100614.72;109108;1260;60008;-75
2024/02/18 03:40:23;;;;;;;6.60;4.40;;;;;;;4.91;100.00;100610.67;109105;1256;59058;-76
2024/02/18 03:42:50;;;;;;;6.10;4.30;;;;;;;4.90;100.00;100609.98;109120;1256;67163;-76
2024/02/18 03:45:17;;;;;;;5.00;3.60;;;;;;;4.89;100.00;100610.89;109148;1257;61022;-75
2024/02/18 03:47:44;;;;;;;6.30;3.80;;;;;;;4.88;100.00;100609.15;109095;1256;65226;-75
2024/02/18 03:50:14;;;;;;;5.80;3.90;;;;;;;4.86;100.00;100609.87;109101;1257;58944;-75
2024/02/18 03:52:42;;;;;;;4.80;4.10;;;;;;;4.86;100.00;100607.77;109111;1257;59008;-75
2024/02/18 03:55:13;;;;;;;6.20;4.50;;;;;;;4.85;100.00;100609.72;109138;1256;66065;-75
2024/02/18 03:57:40;;;;;;;5.60;3.80;;;;;;;4.84;100.00;100609.55;109132;1256;59886;-73
2024/02/18 04:00:10;;;;;;;8.50;4.40;;;;;;;4.83;100.00;100607.81;109086;1257;65113;-75
2024/02/18 04:02:38;;;;;;;6.20;4.00;;;;;;;4.83;100.00;100608.88;109104;1257;59028;-74
2024/02/18 04:05:07;;;;;;;5.90;4.00;;;;;;;4.82;100.00;100609.59;109109;1257;59033;-75
2024/02/18 04:07:34;;;;;;;7.90;4.40;;;;;;;4.82;100.00;100610.30;108930;1258;67212;-75
2024/02/18 04:10:01;;;;;;;5.00;4.10;;;;;;;4.82;100.00;100611.89;109091;1257;60031;-75
2024/02/18 04:12:28;;;;;;;7.50;4.80;;;;;;;4.81;100.00;100608.73;109102;1256;65084;-74
2024/02/18 04:14:55;;;;;;;7.50;4.20;;;;;;;4.81;100.00;100606.79;109088;1260;59617;-74
2024/02/18 04:17:21;;;;;;;6.50;4.10;;;;;;;4.80;100.00;100605.75;109115;1257;58910;-75
2024/02/18 04:19:48;;;;;;;5.40;4.40;;;;;;;4.80;100.00;100609.81;108958;1257;67233;-76
2024/02/18 04:22:15;;;;;;;8.10;4.40;;;;;;;4.79;100.00;100611.23;109123;1257;61142;-75
2024/02/18 04:24:42;;;;;;;5.70;4.60;;;;;;;4.78;100.00;100611.59;108968;1257;64099;-75
2024/02/18 04:27:09;;;;;;;5.30;4.80;;;;;;;4.78;100.00;100613.53;109075;1256;59481;-76
2024/02/18 04:29:37;;;;;;;7.50;5.30;;;;;;;4.78;100.00;100612.14;109009;1256;59051;-74
2024/02/18 04:32:04;;;;;;;6.80;4.30;;;;;;;4.78;100.00;100614.06;109066;1257;66022;-76
2024/02/18 04:34:31;;;;;;;6.60;4.70;;;;;;;4.77;100.00;100616.55;108930;1256;61926;-75
2024/02/18 04:36:58;;;;;;;5.40;4.70;;;;;;;4.76;100.00;100618.15;109113;1257;62832;-75
2024/02/18 04:39:25;;;;;;;6.50;5.00;;;;;;;4.76;100.00;100621.31;109081;1257;58997;-74
2024/02/18 04:41:51;;;;;;;7.80;5.70;;;;;;;4.76;100.00;100620.98;109093;1256;58941;-75
2024/02/18 04:44:18;;;;;;;12.80;7.70;;;;;;;4.75;100.00;100621.85;109105;1257;67124;-74
2024/02/18 04:46:45;;;;;;;10.80;7.10;;;;;;;4.76;100.00;100623.80;109119;1257;60045;-75
2024/02/18 04:49:14;;;;;;;5.70;4.90;;;;;;;4.76;100.00;100626.08;109112;1256;64017;-76
2024/02/18 04:51:40;;;;;;;6.60;4.80;;;;;;;4.75;100.00;100625.04;109067;1257;58964;-75
2024/02/18 04:54:07;;;;;;;6.60;4.80;;;;;;;4.75;100.00;100627.84;109102;1256;61760;-75
2024/02/18 04:56:34;;;;;;;6.40;4.50;;;;;;;4.75;100.00;100628.21;109140;1258;65706;-75
2024/02/18 04:59:00;;;;;;;6.80;4.90;;;;;;;4.75;100.00;100628.91;109084;1257;60233;-75
2024/02/18 05:01:27;;;;;;;7.20;5.30;;;;;;;4.74;100.00;100627.51;109108;1256;63922;-75
2024/02/18 05:03:54;;;;;;;7.40;5.10;;;;;;;4.75;100.00;100626.10;109116;1256;58956;-73
2024/02/18 05:06:20;;;;;;;7.70;5.50;;;;;;;4.75;100.00;100627.52;109088;1258;58889;-76
2024/02/18 05:08:47;;;;;;;7.10;4.90;;;;;;;4.75;100.00;100628.04;109124;1257;65963;-76
2024/02/18 05:11:14;;;;;;;6.50;5.20;;;;;;;4.74;100.00;100624.88;109101;1256;61520;-77
2024/02/18 05:13:41;;;;;;;8.20;6.00;;;;;;;4.75;100.00;100622.58;109090;1257;64014;-76
2024/02/18 05:16:10;;;;;;;7.20;6.30;;;;;;;4.75;100.00;100625.58;109096;1257;59432;-75
2024/02/18 05:18:37;;;;;;;7.30;5.30;;;;;;;4.75;100.00;100624.14;109133;1257;58980;-76
2024/02/18 05:21:05;;;;;;;7.80;5.50;;;;;;;4.75;100.00;100624.49;108963;1256;67067;-75
2024/02/18 05:23:32;;;;;;;9.60;6.20;;;;;;;4.75;100.00;100621.33;109091;1257;60988;-75
2024/02/18 05:25:59;;;;;;;7.40;5.70;;;;;;;4.75;100.00;100619.58;108988;1257;65008;-75
2024/02/18 05:28:26;;;;;;;9.40;5.80;;;;;;;4.75;100.00;100620.46;109090;1257;59046;-75
2024/02/18 05:30:53;;;;;;;11.20;6.90;;;;;;;4.74;100.00;100616.25;109085;1256;59043;-74
2024/02/18 05:33:19;;;;;;;7.80;6.10;;;;;;;4.74;100.00;100616.08;109093;1257;66029;-75
2024/02/18 05:35:46;;;;;;;10.10;5.80;;;;;;;4.74;100.00;100614.14;109121;1257;60011;-75
2024/02/18 05:38:13;;;;;;;7.30;6.50;;;;;;;4.74;100.00;100615.90;109083;1256;65212;-75
2024/02/18 05:40:39;;;;;;;7.50;6.30;;;;;;;4.73;100.00;100618.19;108967;1257;59044;-75
2024/02/18 05:43:06;;;;;;;8.20;6.30;;;;;;;4.73;100.00;100621.73;109090;1257;59060;-74
2024/02/18 05:45:32;;;;;;;10.40;8.10;;;;;;;4.73;100.00;100619.79;109107;1256;65989;-75
2024/02/18 05:47:59;;;;;;;9.30;7.20;;;;;;;4.72;100.00;100617.86;109098;1256;59819;-75
2024/02/18 05:50:26;;;;;;;11.00;7.20;;;;;;;4.73;100.00;100618.20;109076;1256;64125;-76
2024/02/18 05:52:52;;;;;;;6.90;6.10;;;;;;;4.74;100.00;100621.88;109093;1256;59055;-75
2024/02/18 05:55:19;;;;;;;7.70;5.90;;;;;;;4.73;100.00;100626.11;109093;1256;59021;-75
2024/02/18 05:57:45;;;;;;;7.20;6.40;;;;;;;4.74;100.00;100623.47;109093;1256;66307;-75
2024/02/18 06:00:13;;;;;;;12.00;6.90;;;;;;;4.74;100.00;100625.93;109081;1256;61428;-77
2024/02/18 06:02:39;;;;;;;8.20;6.50;;;;;;;4.74;100.00;100630.33;109012;1256;65180;-75
2024/02/18 06:05:06;;;;;;;7.50;6.20;;;;;;;4.75;100.00;100632.61;109104;1257;59024;-74
2024/02/18 06:07:33;;;;;;;7.90;6.10;;;;;;;4.74;100.00;100636.33;109100;1256;59631;-75
2024/02/18 06:09:59;;;;;;;7.80;5.90;;;;;;;4.74;100.00;100639.85;109115;1257;67059;-74
2024/02/18 06:12:27;;;;;;;9.90;7.60;;;;;;;4.74;100.00;100638.77;109106;1256;60005;-76
2024/02/18 06:14:54;;;;;;;8.80;7.30;;;;;;;4.74;100.00;100639.66;108965;1256;65164;-75
2024/02/18 06:17:21;;;;;;;10.90;7.40;;;;;;;4.74;100.00;100641.77;109031;1256;59014;-75
2024/02/18 06:19:47;;;;;;;8.00;7.10;;;;;;;4.75;100.00;100639.65;108946;1256;59144;-76
2024/02/18 06:22:14;;;;;;;8.80;6.90;;;;;;;4.78;100.00;100643.29;109094;1256;65788;-74
2024/02/18 06:24:40;;;;;;;10.30;6.90;;;;;;;4.79;100.00;100645.75;109055;1257;61089;-75
2024/02/18 06:27:07;;;;;;;8.40;6.90;;;;;;;4.80;100.00;100645.36;108900;1256;64172;-74
2024/02/18 06:29:34;;;;;;;9.70;7.10;;;;;;;4.80;100.00;100645.19;109062;1257;59302;-75
2024/02/18 06:32:00;;;;;;;9.70;7.30;;;;;;;4.81;100.00;100647.46;109093;1256;59445;-74
2024/02/18 06:34:27;;;;;;;11.20;8.20;;;;;;;4.81;100.00;100649.23;108912;1256;64850;-74
2024/02/18 06:36:53;;;;;;;8.60;7.40;;;;;;;4.83;100.00;100654.30;109077;1256;60772;-75
2024/02/18 06:39:20;;;;;;;10.10;7.80;;;;;;;4.85;100.00;100650.40;109070;1256;74191;-75
2024/02/18 06:41:48;;;;;;;12.20;8.00;;;;;;;4.88;100.00;100654.75;109085;1257;58946;-75
2024/02/18 06:44:15;;;;;;;9.80;7.70;;;;;;;4.91;100.00;100655.23;108891;1256;59031;-76
2024/02/18 06:46:42;;;;;;;9.10;7.60;;;;;;;4.95;100.00;100652.00;109086;1256;66040;-74
2024/02/18 06:49:08;;;;;;;10.50;8.30;;;;;;;4.98;100.00;100652.28;109081;1256;60425;-75
2024/02/18 06:51:35;;;;;;;8.10;7.30;;;;;;;5.02;100.00;100651.52;109079;1256;65083;-75
2024/02/18 06:54:02;;;;;;;8.50;7.40;;;;;;;5.09;100.00;100652.45;109060;1256;58868;-76
2024/02/18 06:56:28;;;;;;;10.40;7.60;;;;;;;5.15;100.00;100652.52;108981;1256;59377;-75
2024/02/18 06:58:55;;;;;;;10.10;7.60;;;;;;;5.20;100.00;100654.36;109088;1256;67021;-75
2024/02/18 07:01:22;;;;;;;8.50;6.80;;;;;;;5.25;100.00;100656.55;109071;1257;61141;-75
2024/02/18 07:03:48;;;;;;;10.30;7.60;;;;;;;5.29;100.00;100658.08;109128;1256;64483;-76
2024/02/18 07:06:17;;;;;;;10.50;7.50;;;;;;;5.36;100.00;100658.84;109046;1256;59018;-75
2024/02/18 07:08:44;;;;;;;8.50;7.20;;;;;;;5.42;100.00;100661.38;109139;1256;58967;-75
2024/02/18 07:11:13;;;;;;;9.30;6.90;;;;;;;5.45;100.00;100664.47;109110;1256;67279;-76
2024/02/18 07:13:40;;;;;;;12.00;9.70;;;;;;;5.47;100.00;100666.54;109056;1256;61163;-75
2024/02/18 07:16:07;;;;;;;11.20;9.20;;;;;;;5.48;100.00;100666.53;109056;1256;65506;-76
2024/02/18 07:18:33;;;;;;;12.70;9.20;;;;;;;5.50;100.00;100667.37;109079;1256;59292;-76
2024/02/18 07:21:01;;;;;;;10.80;9.40;;;;;;;5.53;100.00;100668.38;108904;1256;58995;-75
2024/02/18 07:23:28;;;;;;;10.50;9.00;;;;;;;5.55;100.00;100672.05;109088;1256;66928;-74
2024/02/18 07:25:55;;;;;;;11.60;8.60;;;;;;;5.58;100.00;100672.88;109088;1257;61022;-75
2024/02/18 07:28:21;;;;;;;11.70;9.10;;;;;;;5.59;100.00;100674.45;109099;1256;65006;-75
2024/02/18 07:30:48;;;;;;;11.20;9.30;;;;;;;5.60;100.00;100673.17;108981;1256;59307;-75
2024/02/18 07:33:15;;;;;;;9.40;8.10;;;;;;;5.64;100.00;100675.92;109088;1256;59259;-75
2024/02/18 07:35:41;;;;;;;9.90;8.10;;;;;;;5.65;100.00;100675.36;109107;1256;67095;-76
2024/02/18 07:38:08;;;;;;;10.30;8.10;;;;;;;5.68;100.00;100675.29;109090;1256;61150;-74
2024/02/18 07:40:34;;;;;;;10.70;8.50;;;;;;;5.74;100.00;100677.31;109062;1256;64851;-75
2024/02/18 07:43:01;;;;;;;9.50;8.10;;;;;;;5.81;100.00;100678.41;109056;1256;59053;-75
2024/02/18 07:45:28;;;;;;;9.70;8.10;;;;;;;5.87;100.00;100678.98;109107;1256;59136;-74
2024/02/18 07:47:55;;;;;;;9.30;8.20;;;;;;;5.92;100.00;100678.35;109062;1256;67041;-74
2024/02/18 07:50:21;;;;;;;8.80;7.30;;;;;;;5.93;100.00;100680.46;109001;1256;61474;-74
2024/02/18 07:52:48;;;;;;;9.00;6.80;;;;;;;5.93;100.00;100685.58;109056;1256;73864;-75
2024/02/18 07:55:14;;;;;;;9.80;7.30;;;;;;;5.92;100.00;100684.00;109057;1256;59402;-77
2024/02/18 07:57:41;;;;;;;10.50;8.50;;;;;;;5.93;100.00;100683.83;109007;1256;59106;-76
2024/02/18 08:00:08;;;;;;;12.20;8.10;;;;;;;5.96;100.00;100686.95;109054;1256;67091;-75
2024/02/18 08:02:35;;;;;;;11.10;8.10;;;;;;;5.98;100.00;100686.02;109078;1256;60377;-75
2024/02/18 08:05:01;;;;;;;12.50;9.80;;;;;;;6.00;100.00;100685.81;109071;1256;65194;-74
2024/02/18 08:07:28;;;;;;;12.90;9.20;;;;;;;6.02;100.00;100687.18;109067;1256;59116;-74
2024/02/18 08:09:55;;;;;;;14.10;9.60;;;;;;;6.03;100.00;100688.55;109073;1256;59359;-74
2024/02/18 08:12:21;;;;;;;12.70;9.00;;;;;;;6.06;100.00;100685.86;109046;1256;64754;-75
2024/02/18 08:14:48;;;;;;;9.10;7.40;;;;;;;6.11;100.00;100687.15;109094;1256;60040;-74
2024/02/18 08:17:15;;;;;;;9.90;7.70;;;;;;;6.19;100.00;100690.00;109061;1256;65048;-76
2024/02/18 08:19:41;;;;;;;11.00;7.30;;;;;;;6.23;100.00;100693.25;109065;1256;59226;-74
2024/02/18 08:22:08;;;;;;;8.80;6.70;;;;;;;6.26;100.00;100698.84;109068;1256;59149;-76
2024/02/18 08:24:34;;;;;;;11.00;8.20;;;;;;;6.27;100.00;100699.70;109056;1256;67024;-75
2024/02/18 08:27:01;;;;;;;13.50;8.10;;;;;;;6.27;100.00;100699.52;109105;1256;60005;-75
2024/02/18 08:29:28;;;;;;;8.50;7.20;;;;;;;6.31;100.00;100698.55;109060;1256;64176;-76
2024/02/18 08:31:54;;;;;;;9.30;7.00;;;;;;;6.37;100.00;100698.23;109047;1256;59363;-75
2024/02/18 08:34:22;;;;;;;8.50;6.10;;;;;;;6.45;100.00;100696.30;108987;1256;59027;-75
2024/02/18 08:36:49;;;;;;;8.80;6.30;;;;;;;6.54;100.00;100695.19;109056;1256;67006;-75
2024/02/18 08:39:15;;;;;;;6.50;5.80;;;;;;;6.64;100.00;100691.63;109073;1256;61410;-75
2024/02/18 08:41:42;;;;;;;6.40;5.40;;;;;;;6.72;100.00;100697.61;108912;1257;64319;-75
2024/02/18 08:44:08;;;;;;;8.10;5.70;;;;;;;6.78;100.00;100698.52;109065;1256;58966;-74
2024/02/18 08:46:35;;;;;;;7.10;5.90;;;;;;;6.85;100.00;100697.30;109084;1256;59011;-75
2024/02/18 08:49:02;;;;;;;6.00;5.40;;;;;;;6.92;100.00;100698.01;109083;1256;64732;-75
2024/02/18 08:51:29;;;;;;;6.10;5.50;;;;;;;6.97;100.00;100697.72;109076;1256;60114;-76
2024/02/18 08:53:55;;;;;;;7.60;6.30;;;;;;;7.03;100.00;100698.27;109051;1256;65033;-74
2024/02/18 08:56:22;;;;;;;6.50;5.80;;;;;;;7.09;100.00;100697.41;109052;1256;59543;-75
2024/02/18 08:58:48;;;;;;;8.10;5.10;;;;;;;7.11;100.00;100697.90;109085;1256;58966;-75
2024/02/18 09:01:17;;;;;;;6.90;5.40;;;;;;;7.18;100.00;100701.09;109071;1256;67268;-74
2024/02/18 09:03:44;;;;;;;6.80;5.60;;;;;;;7.28;100.00;100701.17;109069;1256;60759;-76
2024/02/18 09:06:11;;;;;;;8.10;6.30;;;;;;;7.34;100.00;100700.48;109051;1256;64032;-75
2024/02/18 09:08:37;;;;;;;7.60;5.80;;;;;;;7.33;100.00;100703.87;108907;1256;59083;-75
2024/02/18 09:11:04;;;;;;;6.70;5.60;;;;;;;7.30;100.00;100701.46;108912;1256;59116;-75
2024/02/18 09:13:31;;;;;;;7.10;5.80;;;;;;;7.30;100.00;100696.70;109081;1256;65957;-74
2024/02/18 09:15:57;;;;;;;7.20;5.70;;;;;;;7.37;100.00;100690.33;109090;1256;61099;-74
2024/02/18 09:18:24;;;;;;;7.90;5.70;;;;;;;7.45;100.00;100688.84;109052;1256;64988;-74
2024/02/18 09:20:51;;;;;;;8.60;5.70;;;;;;;7.46;100.00;100695.37;109073;1256;59078;-75
2024/02/18 09:23:18;;;;;;;7.10;6.30;;;;;;;7.46;100.00;100692.89;109088;1256;59374;-76
2024/02/18 09:25:45;;;;;;;8.10;6.00;;;;;;;7.50;100.00;100692.28;108940;1256;65529;-77
2024/02/18 09:28:12;;;;;;;7.10;5.90;;;;;;;7.52;100.00;100691.49;109102;1256;62572;-76
2024/02/18 09:30:39;;;;;;;6.40;5.60;;;;;;;7.56;100.00;100693.89;109060;1256;63983;-74
2024/02/18 09:33:07;;;;;;;6.70;5.90;;;;;;;7.58;100.00;100691.53;109104;1256;59148;-75
2024/02/18 09:35:34;;;;;;;8.70;6.60;;;;;;;7.65;100.00;100689.02;109078;1256;59011;-75
2024/02/18 09:38:00;;;;;;;6.80;5.80;;;;;;;7.77;100.00;100683.58;109064;1256;66846;-74
2024/02/18 09:40:28;;;;;;;7.40;6.30;;;;;;;7.86;100.00;100678.52;109057;1256;60195;-75
2024/02/18 09:42:54;;;;;;;6.70;5.60;;;;;;;7.94;100.00;100678.99;109113;1256;64039;-75
2024/02/18 09:45:28;;;;;;;8.50;6.00;;;;;;;7.95;100.00;100675.08;109065;1256;59003;-77
2024/02/18 09:47:57;;;;;;;8.60;6.10;;;;;;;7.98;100.00;100671.84;109124;1256;59073;-75
2024/02/18 09:50:24;;;;;;;7.80;7.00;;;;;;;8.03;100.00;100668.11;109093;1256;67234;-75
2024/02/18 09:52:52;;;;;;;8.00;6.30;;;;;;;8.16;100.00;100670.05;109096;1256;61370;-75
2024/02/18 09:55:20;;;;;;;8.30;6.20;;;;;;;8.29;100.00;100670.52;109059;1256;64110;-75
2024/02/18 09:57:46;;;;;;;6.60;5.80;;;;;;;8.37;100.00;100668.88;109067;1256;59010;-77
2024/02/18 10:00:14;;;;;;;6.90;6.00;;;;;;;8.47;100.00;100666.11;109106;1256;58871;-75
2024/02/18 10:02:42;;;;;;;7.20;6.00;;;;;;;8.57;100.00;100668.60;109094;1256;67053;-75
2024/02/18 10:05:09;;;;;;;7.40;6.10;;;;;;;8.55;100.00;100668.70;109100;1256;60106;-75
2024/02/18 10:07:36;;;;;;;7.60;5.80;;;;;;;8.53;100.00;100660.60;109077;1256;64074;-75
2024/02/18 10:10:03;;;;;;;7.30;6.50;;;;;;;8.63;100.00;100653.19;109057;1256;59066;-75
2024/02/18 10:12:31;;;;;;;8.60;6.30;;;;;;;8.70;100.00;100654.04;109121;1256;59069;-76
2024/02/18 10:15:01;;;;;;;9.00;6.50;;;;;;;8.72;100.00;100649.36;109074;1256;67109;-75
2024/02/18 10:17:28;;;;;;;;;;;;;;;8.69;100.00;100642.38;109093;1256;60865;-76
2024/02/18 10:19:56;;;;;;;9.50;7.50;;;;;;;8.63;100.00;100639.73;109077;1256;64226;-75
2024/02/18 10:22:24;;;;;;;6.30;5.70;;;;;;;8.61;100.00;100635.72;109097;1256;59035;-74
2024/02/18 10:24:52;;;;;;;9.30;6.80;;;;;;;8.61;100.00;100636.08;109112;1256;58871;-76
2024/02/18 10:27:19;;;;;;;6.60;5.90;;;;;;;8.64;100.00;100628.91;109098;1256;66100;-76
2024/02/18 10:29:51;;;;;;;7.80;6.10;;;;;;;8.71;100.00;100622.46;108934;1256;61452;-75
2024/02/18 10:32:18;;;;;;;7.70;6.40;;;;;;;8.83;100.00;100620.82;109081;1256;64171;-76
2024/02/18 10:34:46;;;;;;;6.90;6.20;;;;;;;8.92;100.00;100617.15;109076;1256;59013;-74
2024/02/18 10:37:41;;;;;;;7.80;6.40;;;;;;;8.94;100.00;100616.02;109060;1256;58991;-75
2024/02/18 10:40:15;;;;;;;8.50;6.40;;;;;;;8.96;100.00;100611.52;109109;1256;67049;-75
2024/02/18 10:42:45;;;;;;;6.80;6.10;;;;;;;8.99;100.00;100607.15;109076;1256;60269;-75
2024/02/18 10:45:12;;;;;;;8.20;6.60;;;;;;;8.97;100.00;100606.33;109112;1256;63850;-75
2024/02/18 10:47:44;;;;;;;8.10;7.30;;;;;;;8.95;100.00;100595.79;109085;1256;59592;-74
2024/02/18 10:50:13;;;;;;;10.20;7.40;;;;;;;8.93;100.00;100591.42;109096;1256;59067;-75
2024/02/18 10:52:46;;;;;;;8.60;6.40;;;;;;;8.94;100.00;100589.05;109087;1256;67180;-75
2024/02/18 10:55:16;;;;;;;10.20;6.20;;;;;;;8.90;100.00;100590.98;109116;1256;60122;-76
2024/02/18 10:57:54;;;;;;;7.40;6.30;;;;;;;8.86;100.00;100592.91;109086;1256;65354;-75
2024/02/18 11:00:24;;;;;;;6.70;6.10;;;;;;;8.83;100.00;100589.61;108989;1256;59234;-75
2024/02/18 11:03:05;;;;;;;8.30;7.50;;;;;;;8.77;100.00;100588.94;109129;1256;58974;-75
2024/02/18 11:05:35;;;;;;;7.70;6.90;;;;;;;8.63;100.00;100592.79;109103;1256;67222;-75
2024/02/18 11:08:04;;;;;;;9.40;6.70;;;;;;;8.56;100.00;100594.97;109062;1256;61048;-75
2024/02/18 11:10:31;;;;;;;8.30;7.50;;;;;;;8.54;100.00;100590.79;109030;1256;64007;-75
2024/02/18 11:12:59;;;;;;;10.40;7.20;;;;;;;8.49;100.00;100581.20;109088;1256;59042;-74
2024/02/18 11:15:25;;;;;;;8.20;6.70;;;;;;;8.42;100.00;100569.75;109124;1256;58902;-75
2024/02/18 11:17:53;;;;;;;7.30;6.50;;;;;;;8.41;100.00;100564.83;108938;1256;67062;-75